sensor_id;sensor_type;location;lat;lon;timestamp;pressure;altitude;pressure_sealevel;temperature;humidity
6020;BME280;3038;51.122;6.840;2023-11-22T00:00:43;102212.88;;;6.21;100.00
6020;BME280;3038;51.122;6.840;2023-11-22T00:03:09;102219.19;;;6.18;100.00
6020;BME280;3038;51.122;6.840;2023-11-22T00:05:34;102223.59;;;6.17;100.00
6020;BME280;3038;51.122;6.840;2023-11-22T00:07:59;102228.22;;;6.14;100.00
6020;BME280;3038;51.122;6.840;2023-11-22T00:10:25;102224.00;;;6.11;100.00
6020;BME280;3038;51.122;6.840;2023-11-22T00:12:50;102222.09;;;6.13;100.00
6020;BME280;3038;51.122;6.840;2023-11-22T00:15:18;102219.28;;;6.16;100.00
6020;BME280;3038;51.122;6.840;2023-11-22T00:17:45;102220.03;;;6.18;100.00
6020;BME280;3038;51.122;6.840;2023-11-22T00:20:11;102218.25;;;6.19;100.00
6020;BME280;3038;51.122;6.840;2023-11-22T00:22:36;102227.00;;;6.20;100.00
6020;BME280;3038;51.122;6.840;2023-11-22T00:25:02;102220.03;;;6.18;100.00
6020;BME280;3038;51.122;6.840;2023-11-22T00:27:29;102218.16;;;6.21;100.00
6020;BME280;3038;51.122;6.840;2023-11-22T00:30:00;102221.75;;;6.20;100.00
6020;BME280;3038;51.122;6.840;2023-11-22T00:32:25;102214.97;;;6.15;100.00
6020;BME280;3038;51.122;6.840;2023-11-22T00:34:51;102228.31;;;6.12;100.00
6020;BME280;3038;51.122;6.840;2023-11-22T00:37:24;102218.91;;;6.08;100.00
6020;BME280;3038;51.122;6.840;2023-11-22T00:39:49;102222.47;;;6.07;100.00
6020;BME280;3038;51.122;6.840;2023-11-22T00:42:15;102223.53;;;6.05;100.00
6020;BME280;3038;51.122;6.840;2023-11-22T00:44:40;102228.88;;;6.03;100.00
6020;BME280;3038;51.122;6.840;2023-11-22T00:47:06;102230.56;;;6.04;100.00
6020;BME280;3038;51.122;6.840;2023-11-22T00:49:31;102227.94;;;6.04;100.00
6020;BME280;3038;51.122;6.840;2023-11-22T00:51:57;102222.84;;;6.01;100.00
6020;BME280;3038;51.122;6.840;2023-11-22T00:54:23;102222.84;;;6.01;100.00
6020;BME280;3038;51.122;6.840;2023-11-22T00:56:50;102226.50;;;5.99;100.00
6020;BME280;3038;51.122;6.840;2023-11-22T00:59:15;102236.50;;;5.93;100.00
6020;BME280;3038;51.122;6.840;2023-11-22T01:01:40;102235.66;;;5.93;100.00
6020;BME280;3038;51.122;6.840;2023-11-22T01:04:06;102241.09;;;5.90;100.00
6020;BME280;3038;51.122;6.840;2023-11-22T01:06:32;102238.78;;;5.84;100.00
6020;BME280;3038;51.122;6.840;2023-11-22T01:08:58;102239.06;;;5.79;100.00
6020;BME280;3038;51.122;6.840;2023-11-22T01:11:24;102238.44;;;5.76;100.00
6020;BME280;3038;51.122;6.840;2023-11-22T01:13:49;102240.28;;;5.74;100.00
6020;BME280;3038;51.122;6.840;2023-11-22T01:16:14;102254.59;;;5.70;100.00
6020;BME280;3038;51.122;6.840;2023-11-22T01:18:41;102246.88;;;5.66;100.00
6020;BME280;3038;51.122;6.840;2023-11-22T01:21:06;102248.00;;;5.62;100.00
6020;BME280;3038;51.122;6.840;2023-11-22T01:23:32;102258.91;;;5.56;100.00
6020;BME280;3038;51.122;6.840;2023-11-22T01:26:01;102261.78;;;5.52;100.00
6020;BME280;3038;51.122;6.840;2023-11-22T01:28:28;102269.19;;;5.45;100.00
6020;BME280;3038;51.122;6.840;2023-11-22T01:30:54;102268.81;;;5.37;100.00
6020;BME280;3038;51.122;6.840;2023-11-22T01:33:20;102277.03;;;5.31;100.00
6020;BME280;3038;51.122;6.840;2023-11-22T01:35:46;102265.06;;;5.25;100.00
6020;BME280;3038;51.122;6.840;2023-11-22T01:38:11;102266.94;;;5.23;100.00
6020;BME280;3038;51.122;6.840;2023-11-22T01:40:43;102271.44;;;5.21;100.00
6020;BME280;3038;51.122;6.840;2023-11-22T01:43:13;102274.16;;;5.20;100.00
6020;BME280;3038;51.122;6.840;2023-11-22T01:45:38;102280.38;;;5.19;100.00
6020;BME280;3038;51.122;6.840;2023-11-22T01:48:04;102283.25;;;5.14;100.00
6020;BME280;3038;51.122;6.840;2023-11-22T01:50:29;102293.94;;;5.11;100.00
6020;BME280;3038;51.122;6.840;2023-11-22T01:52:54;102293.47;;;5.04;100.00
6020;BME280;3038;51.122;6.840;2023-11-22T01:55:20;102312.13;;;5.00;100.00
6020;BME280;3038;51.122;6.840;2023-11-22T01:57:45;102300.91;;;4.96;100.00
6020;BME280;3038;51.122;6.840;2023-11-22T02:00:11;102302.81;;;4.94;100.00
6020;BME280;3038;51.122;6.840;2023-11-22T02:02:40;102309.75;;;4.95;100.00
6020;BME280;3038;51.122;6.840;2023-11-22T02:05:11;102315.88;;;4.96;100.00
6020;BME280;3038;51.122;6.840;2023-11-22T02:07:37;102313.97;;;4.98;100.00
6020;BME280;3038;51.122;6.840;2023-11-22T02:10:03;102314.69;;;5.01;100.00
6020;BME280;3038;51.122;6.840;2023-11-22T02:12:32;102317.06;;;5.06;100.00
6020;BME280;3038;51.122;6.840;2023-11-22T02:14:58;102326.56;;;5.08;100.00
6020;BME280;3038;51.122;6.840;2023-11-22T02:17:24;102336.06;;;5.11;100.00
6020;BME280;3038;51.122;6.840;2023-11-22T02:19:49;102343.72;;;5.15;100.00
6020;BME280;3038;51.122;6.840;2023-11-22T02:22:17;102347.78;;;5.21;100.00
6020;BME280;3038;51.122;6.840;2023-11-22T02:24:43;102349.22;;;5.27;100.00
6020;BME280;3038;51.122;6.840;2023-11-22T02:27:08;102339.47;;;5.29;100.00
6020;BME280;3038;51.122;6.840;2023-11-22T02:29:39;102337.69;;;5.29;100.00
6020;BME280;3038;51.122;6.840;2023-11-22T02:32:05;102337.00;;;5.26;100.00
6020;BME280;3038;51.122;6.840;2023-11-22T02:34:31;102332.00;;;5.21;100.00
6020;BME280;3038;51.122;6.840;2023-11-22T02:36:56;102323.69;;;5.13;100.00
6020;BME280;3038;51.122;6.840;2023-11-22T02:39:28;102330.13;;;5.07;100.00
6020;BME280;3038;51.122;6.840;2023-11-22T02:41:58;102330.66;;;4.98;100.00
6020;BME280;3038;51.122;6.840;2023-11-22T02:44:23;102323.00;;;4.94;100.00
6020;BME280;3038;51.122;6.840;2023-11-22T02:46:49;102324.34;;;4.85;100.00
6020;BME280;3038;51.122;6.840;2023-11-22T02:49:14;102317.78;;;4.76;100.00
6020;BME280;3038;51.122;6.840;2023-11-22T02:51:40;102318.88;;;4.72;100.00
6020;BME280;3038;51.122;6.840;2023-11-22T02:54:05;102319.22;;;4.66;100.00
6020;BME280;3038;51.122;6.840;2023-11-22T02:56:31;102321.94;;;4.64;100.00
6020;BME280;3038;51.122;6.840;2023-11-22T02:58:56;102321.41;;;4.58;100.00
6020;BME280;3038;51.122;6.840;2023-11-22T03:01:21;102332.25;;;4.52;100.00
6020;BME280;3038;51.122;6.840;2023-11-22T03:03:47;102328.19;;;4.46;100.00
6020;BME280;3038;51.122;6.840;2023-11-22T03:06:12;102327.56;;;4.41;100.00
6020;BME280;3038;51.122;6.840;2023-11-22T03:08:40;102338.25;;;4.38;100.00
6020;BME280;3038;51.122;6.840;2023-11-22T03:11:05;102346.28;;;4.35;100.00
6020;BME280;3038;51.122;6.840;2023-11-22T03:13:32;102349.09;;;4.32;100.00
6020;BME280;3038;51.122;6.840;2023-11-22T03:15:59;102358.81;;;4.30;100.00
6020;BME280;3038;51.122;6.840;2023-11-22T03:18:24;102362.38;;;4.29;100.00
6020;BME280;3038;51.122;6.840;2023-11-22T03:20:49;102362.63;;;4.24;100.00
6020;BME280;3038;51.122;6.840;2023-11-22T03:23:19;102364.41;;;4.24;100.00
6020;BME280;3038;51.122;6.840;2023-11-22T03:25:47;102364.41;;;4.24;100.00
6020;BME280;3038;51.122;6.840;2023-11-22T03:28:13;102366.72;;;4.12;100.00
6020;BME280;3038;51.122;6.840;2023-11-22T03:30:38;102377.63;;;4.05;100.00
6020;BME280;3038;51.122;6.840;2023-11-22T03:33:08;102382.25;;;4.00;100.00
6020;BME280;3038;51.122;6.840;2023-11-22T03:35:33;102380.69;;;3.96;100.00
6020;BME280;3038;51.122;6.840;2023-11-22T03:37:59;102381.72;;;3.93;100.00
6020;BME280;3038;51.122;6.840;2023-11-22T03:40:24;102382.66;;;3.92;100.00
6020;BME280;3038;51.122;6.840;2023-11-22T03:42:49;102379.09;;;3.93;100.00
6020;BME280;3038;51.122;6.840;2023-11-22T03:45:15;102381.72;;;3.93;100.00
6020;BME280;3038;51.122;6.840;2023-11-22T03:47:40;102380.88;;;3.93;100.00
6020;BME280;3038;51.122;6.840;2023-11-22T03:50:06;102385.28;;;3.92;100.00
6020;BME280;3038;51.122;6.840;2023-11-22T03:52:31;102392.22;;;3.93;100.00
6020;BME280;3038;51.122;6.840;2023-11-22T03:54:57;102385.28;;;3.92;100.00
6020;BME280;3038;51.122;6.840;2023-11-22T03:57:23;102392.38;;;3.90;100.00
6020;BME280;3038;51.122;6.840;2023-11-22T03:59:48;102400.34;;;3.89;100.00
6020;BME280;3038;51.122;6.840;2023-11-22T04:02:14;102406.56;;;3.86;100.00
6020;BME280;3038;51.122;6.840;2023-11-22T04:04:39;102408.44;;;3.84;100.00
6020;BME280;3038;51.122;6.840;2023-11-22T04:07:07;102406.03;;;3.79;100.00
6020;BME280;3038;51.122;6.840;2023-11-22T04:09:32;102395.59;;;3.78;100.00
6020;BME280;3038;51.122;6.840;2023-11-22T04:11:58;102406.13;;;3.78;100.00
6020;BME280;3038;51.122;6.840;2023-11-22T04:14:26;102415.84;;;3.76;100.00
6020;BME280;3038;51.122;6.840;2023-11-22T04:16:52;102425.63;;;3.72;100.00
6020;BME280;3038;51.122;6.840;2023-11-22T04:19:20;102427.50;;;3.70;100.00
6020;BME280;3038;51.122;6.840;2023-11-22T04:21:48;102425.09;;;3.66;100.00
6020;BME280;3038;51.122;6.840;2023-11-22T04:24:14;102432.19;;;3.64;100.00
6020;BME280;3038;51.122;6.840;2023-11-22T04:26:41;102441.06;;;3.61;100.00
6020;BME280;3038;51.122;6.840;2023-11-22T04:29:10;102449.78;;;3.61;100.00
6020;BME280;3038;51.122;6.840;2023-11-22T04:31:35;102462.28;;;3.56;100.00
6020;BME280;3038;51.122;6.840;2023-11-22T04:34:03;102457.25;;;3.52;100.00
6020;BME280;3038;51.122;6.840;2023-11-22T04:36:28;102453.94;;;3.48;100.00
6020;BME280;3038;51.122;6.840;2023-11-22T04:38:54;102453.00;;;3.49;100.00
6020;BME280;3038;51.122;6.840;2023-11-22T04:41:19;102453.75;;;3.51;100.00
6020;BME280;3038;51.122;6.840;2023-11-22T04:43:47;102455.00;;;3.44;100.00
6020;BME280;3038;51.122;6.840;2023-11-22T04:46:15;102450.94;;;3.37;100.00
6020;BME280;3038;51.122;6.840;2023-11-22T04:48:40;102451.94;;;3.34;100.00
6020;BME280;3038;51.122;6.840;2023-11-22T04:51:07;102449.34;;;3.33;100.00
6020;BME280;3038;51.122;6.840;2023-11-22T04:53:32;102445.97;;;3.31;100.00
6020;BME280;3038;51.122;6.840;2023-11-22T04:55:58;102440.16;;;3.24;100.00
6020;BME280;3038;51.122;6.840;2023-11-22T04:58:24;102439.28;;;3.24;100.00
6020;BME280;3038;51.122;6.840;2023-11-22T05:00:49;102449.78;;;3.24;100.00
6020;BME280;3038;51.122;6.840;2023-11-22T05:03:15;102441.13;;;3.22;100.00
6020;BME280;3038;51.122;6.840;2023-11-22T05:05:40;102446.50;;;3.19;100.00
6020;BME280;3038;51.122;6.840;2023-11-22T05:08:08;102446.38;;;3.22;100.00
6020;BME280;3038;51.122;6.840;2023-11-22T05:10:34;102456.75;;;3.25;100.00
6020;BME280;3038;51.122;6.840;2023-11-22T05:12:59;102463.69;;;3.26;100.00
6020;BME280;3038;51.122;6.840;2023-11-22T05:15:28;102455.91;;;3.24;100.00
6020;BME280;3038;51.122;6.840;2023-11-22T05:17:54;102456.75;;;3.25;100.00
6020;BME280;3038;51.122;6.840;2023-11-22T05:20:19;102456.69;;;3.26;100.00
6020;BME280;3038;51.122;6.840;2023-11-22T05:22:47;102456.75;;;3.25;100.00
6020;BME280;3038;51.122;6.840;2023-11-22T05:25:12;102465.41;;;3.27;100.00
6020;BME280;3038;51.122;6.840;2023-11-22T05:27:38;102476.81;;;3.26;100.00
6020;BME280;3038;51.122;6.840;2023-11-22T05:30:03;102482.16;;;3.24;100.00
6020;BME280;3038;51.122;6.840;2023-11-22T05:32:30;102479.56;;;3.23;100.00
6020;BME280;3038;51.122;6.840;2023-11-22T05:34:56;102477.75;;;3.25;100.00
6020;BME280;3038;51.122;6.840;2023-11-22T05:37:22;102489.94;;;3.26;100.00
6020;BME280;3038;51.122;6.840;2023-11-22T05:39:47;102496.91;;;3.27;100.00
6020;BME280;3038;51.122;6.840;2023-11-22T05:42:13;102501.22;;;3.28;100.00
6020;BME280;3038;51.122;6.840;2023-11-22T05:44:41;102495.06;;;3.29;100.00
6020;BME280;3038;51.122;6.840;2023-11-22T05:47:08;102504.84;;;3.25;100.00
6020;BME280;3038;51.122;6.840;2023-11-22T05:49:34;102512.66;;;3.27;100.00
6020;BME280;3038;51.122;6.840;2023-11-22T05:52:00;102515.28;;;3.27;100.00
6020;BME280;3038;51.122;6.840;2023-11-22T05:54:27;102513.28;;;3.32;100.00
6020;BME280;3038;51.122;6.840;2023-11-22T05:56:53;102501.16;;;3.29;100.00
6020;BME280;3038;51.122;6.840;2023-11-22T05:59:19;102510.66;;;3.32;100.00
6020;BME280;3038;51.122;6.840;2023-11-22T06:01:44;102509.91;;;3.30;100.00
6020;BME280;3038;51.122;6.840;2023-11-22T06:04:10;102508.13;;;3.30;100.00
6020;BME280;3038;51.122;6.840;2023-11-22T06:06:36;102519.47;;;3.31;100.00
6020;BME280;3038;51.122;6.840;2023-11-22T06:09:04;102520.19;;;3.34;100.00
6020;BME280;3038;51.122;6.840;2023-11-22T06:11:30;102509.69;;;3.34;100.00
6020;BME280;3038;51.122;6.840;2023-11-22T06:13:56;102509.94;;;3.28;100.00
6020;BME280;3038;51.122;6.840;2023-11-22T06:16:22;102519.59;;;3.28;100.00
6020;BME280;3038;51.122;6.840;2023-11-22T06:18:47;102513.38;;;3.30;100.00
6020;BME280;3038;51.122;6.840;2023-11-22T06:21:12;102508.03;;;3.32;100.00
6020;BME280;3038;51.122;6.840;2023-11-22T06:23:40;102508.25;;;3.27;100.00
6020;BME280;3038;51.122;6.840;2023-11-22T06:26:06;102509.50;;;3.19;100.00
6020;BME280;3038;51.122;6.840;2023-11-22T06:28:31;102516.88;;;3.11;100.00
6020;BME280;3038;51.122;6.840;2023-11-22T06:30:57;102526.06;;;3.00;100.00
6020;BME280;3038;51.122;6.840;2023-11-22T06:33:22;102537.53;;;2.98;100.00
6020;BME280;3038;51.122;6.840;2023-11-22T06:35:47;102527.44;;;2.89;100.00
6020;BME280;3038;51.122;6.840;2023-11-22T06:38:13;102529.59;;;2.79;100.00
6020;BME280;3038;51.122;6.840;2023-11-22T06:40:38;102534.34;;;2.71;100.00
6020;BME280;3038;51.122;6.840;2023-11-22T06:43:04;102529.47;;;2.62;100.00
6020;BME280;3038;51.122;6.840;2023-11-22T06:45:32;102547.16;;;2.56;100.00
6020;BME280;3038;51.122;6.840;2023-11-22T06:47:57;102545.81;;;2.46;100.00
6020;BME280;3038;51.122;6.840;2023-11-22T06:50:23;102553.16;;;2.38;100.00
6020;BME280;3038;51.122;6.840;2023-11-22T06:52:49;102563.84;;;2.32;100.00
6020;BME280;3038;51.122;6.840;2023-11-22T06:55:15;102557.00;;;2.29;100.00
6020;BME280;3038;51.122;6.840;2023-11-22T06:57:41;102554.44;;;2.28;100.00
6020;BME280;3038;51.122;6.840;2023-11-22T07:00:07;102558.75;;;2.29;100.00
6020;BME280;3038;51.122;6.840;2023-11-22T07:02:34;102549.00;;;2.33;100.00
6020;BME280;3038;51.122;6.840;2023-11-22T07:05:03;102557.38;;;2.42;100.00
6020;BME280;3038;51.122;6.840;2023-11-22T07:07:30;102558.91;;;2.46;100.00
6020;BME280;3038;51.122;6.840;2023-11-22T07:09:55;102562.09;;;2.54;100.00
6020;BME280;3038;51.122;6.840;2023-11-22T07:12:24;102563.75;;;2.57;100.00
6020;BME280;3038;51.122;6.840;2023-11-22T07:14:50;102572.50;;;2.56;100.00
6020;BME280;3038;51.122;6.840;2023-11-22T07:17:18;102572.47;;;2.57;100.00
6020;BME280;3038;51.122;6.840;2023-11-22T07:19:44;102571.72;;;2.54;100.00
6020;BME280;3038;51.122;6.840;2023-11-22T07:22:15;102576.00;;;2.56;100.00
6020;BME280;3038;51.122;6.840;2023-11-22T07:24:47;102575.09;;;2.57;100.00
6020;BME280;3038;51.122;6.840;2023-11-22T07:27:13;102584.00;;;2.53;100.00
6020;BME280;3038;51.122;6.840;2023-11-22T07:29:43;102587.53;;;2.52;100.00
6020;BME280;3038;51.122;6.840;2023-11-22T07:32:09;102599.81;;;2.50;100.00
6020;BME280;3038;51.122;6.840;2023-11-22T07:34:36;102605.06;;;2.50;100.00
6020;BME280;3038;51.122;6.840;2023-11-22T07:37:02;102618.84;;;2.55;100.00
6020;BME280;3038;51.122;6.840;2023-11-22T07:39:28;102631.84;;;2.58;100.00
6020;BME280;3038;51.122;6.840;2023-11-22T07:41:56;102632.53;;;2.64;100.00
6020;BME280;3038;51.122;6.840;2023-11-22T07:44:22;102634.97;;;2.68;100.00
6020;BME280;3038;51.122;6.840;2023-11-22T07:46:49;102632.03;;;2.76;100.00
6020;BME280;3038;51.122;6.840;2023-11-22T07:49:15;102631.78;;;2.82;100.00
6020;BME280;3038;51.122;6.840;2023-11-22T07:51:40;102627.19;;;2.87;100.00
6020;BME280;3038;51.122;6.840;2023-11-22T07:54:07;102624.31;;;2.93;100.00
6020;BME280;3038;51.122;6.840;2023-11-22T07:56:33;102623.81;;;3.05;100.00
6020;BME280;3038;51.122;6.840;2023-11-22T07:59:01;102621.69;;;3.14;100.00
6020;BME280;3038;51.122;6.840;2023-11-22T08:01:26;102618.88;;;3.18;100.00
6020;BME280;3038;51.122;6.840;2023-11-22T08:03:59;102602.91;;;3.24;100.00
6020;BME280;3038;51.122;6.840;2023-11-22T08:06:24;102603.75;;;3.25;100.00
6020;BME280;3038;51.122;6.840;2023-11-22T08:08:51;102601.78;;;3.30;100.00
6020;BME280;3038;51.122;6.840;2023-11-22T08:11:18;102589.41;;;3.32;100.00
6020;BME280;3038;51.122;6.840;2023-11-22T08:13:46;102591.13;;;3.33;100.00
6020;BME280;3038;51.122;6.840;2023-11-22T08:16:13;102587.44;;;3.37;100.00
6020;BME280;3038;51.122;6.840;2023-11-22T08:18:39;102596.25;;;3.36;100.00
6020;BME280;3038;51.122;6.840;2023-11-22T08:21:06;102599.66;;;3.38;100.00
6020;BME280;3038;51.122;6.840;2023-11-22T08:23:31;102595.78;;;3.47;100.00
6020;BME280;3038;51.122;6.840;2023-11-22T08:25:59;102592.66;;;3.57;100.00
6020;BME280;3038;51.122;6.840;2023-11-22T08:28:24;102590.56;;;3.66;100.00
6020;BME280;3038;51.122;6.840;2023-11-22T08:30:51;102587.00;;;3.67;100.00
6020;BME280;3038;51.122;6.840;2023-11-22T08:33:16;102587.16;;;3.64;100.00
6020;BME280;3038;51.122;6.840;2023-11-22T08:35:42;102591.28;;;3.69;100.00
6020;BME280;3038;51.122;6.840;2023-11-22T08:38:08;102597.16;;;3.74;100.00
6020;BME280;3038;51.122;6.840;2023-11-22T08:40:35;102599.44;;;3.82;100.00
6020;BME280;3038;51.122;6.840;2023-11-22T08:43:02;102604.28;;;3.91;100.00
6020;BME280;3038;51.122;6.840;2023-11-22T08:45:29;102607.41;;;3.99;100.00
6020;BME280;3038;51.122;6.840;2023-11-22T08:47:57;102617.50;;;4.08;100.00
6020;BME280;3038;51.122;6.840;2023-11-22T08:50:23;102628.56;;;4.15;100.00
6020;BME280;3038;51.122;6.840;2023-11-22T08:52:49;102644.09;;;4.21;100.00
6020;BME280;3038;51.122;6.840;2023-11-22T08:55:20;102659.47;;;4.29;100.00
6020;BME280;3038;51.122;6.840;2023-11-22T08:57:50;102664.41;;;4.36;100.00
6020;BME280;3038;51.122;6.840;2023-11-22T09:00:16;102675.75;;;4.37;100.00
6020;BME280;3038;51.122;6.840;2023-11-22T09:02:47;102679.16;;;4.39;100.00
6020;BME280;3038;51.122;6.840;2023-11-22T09:05:13;102682.06;;;4.52;100.00
6020;BME280;3038;51.122;6.840;2023-11-22T09:07:39;102689.75;;;4.56;100.00
6020;BME280;3038;51.122;6.840;2023-11-22T09:10:05;102693.22;;;4.57;97.64
6020;BME280;3038;51.122;6.840;2023-11-22T09:12:40;102688.53;;;4.63;97.16
6020;BME280;3038;51.122;6.840;2023-11-22T09:15:12;102677.72;;;4.70;93.88
6020;BME280;3038;51.122;6.840;2023-11-22T09:17:43;102667.22;;;4.87;95.26
6020;BME280;3038;51.122;6.840;2023-11-22T09:20:19;102674.13;;;5.07;94.53
6020;BME280;3038;51.122;6.840;2023-11-22T09:22:52;102670.34;;;5.30;93.21
6020;BME280;3038;51.122;6.840;2023-11-22T09:25:21;102662.66;;;6.10;88.20
6020;BME280;3038;51.122;6.840;2023-11-22T09:27:51;102662.94;;;7.29;84.83
6020;BME280;3038;51.122;6.840;2023-11-22T09:30:19;102662.34;;;8.11;78.78
6020;BME280;3038;51.122;6.840;2023-11-22T09:33:05;102655.75;;;8.60;74.57
6020;BME280;3038;51.122;6.840;2023-11-22T09:35:32;102659.16;;;8.89;73.56
6020;BME280;3038;51.122;6.840;2023-11-22T09:37:59;102663.84;;;8.98;72.48
6020;BME280;3038;51.122;6.840;2023-11-22T09:40:30;102651.91;;;8.78;72.62
6020;BME280;3038;51.122;6.840;2023-11-22T09:42:59;102645.28;;;8.85;72.43
6020;BME280;3038;51.122;6.840;2023-11-22T09:45:27;102641.16;;;8.94;74.60
6020;BME280;3038;51.122;6.840;2023-11-22T09:47:53;102627.03;;;9.20;73.79
6020;BME280;3038;51.122;6.840;2023-11-22T09:50:33;102628.28;;;9.27;70.02
6020;BME280;3038;51.122;6.840;2023-11-22T09:53:02;102637.50;;;9.09;67.47
6020;BME280;3038;51.122;6.840;2023-11-22T09:55:32;102641.16;;;8.94;66.91
6020;BME280;3038;51.122;6.840;2023-11-22T09:57:59;102642.03;;;9.07;70.21
6020;BME280;3038;51.122;6.840;2023-11-22T10:00:28;102645.25;;;9.25;67.93
6020;BME280;3038;51.122;6.840;2023-11-22T10:02:56;102648.97;;;9.22;69.26
6020;BME280;3038;51.122;6.840;2023-11-22T10:05:23;102647.16;;;9.23;66.10
6020;BME280;3038;51.122;6.840;2023-11-22T10:07:49;102643.50;;;8.98;65.32
6020;BME280;3038;51.122;6.840;2023-11-22T10:10:15;102638.84;;;9.02;65.06
6020;BME280;3038;51.122;6.840;2023-11-22T10:12:43;102635.22;;;8.90;64.53
6020;BME280;3038;51.122;6.840;2023-11-22T10:15:13;102650.03;;;8.80;64.74
6020;BME280;3038;51.122;6.840;2023-11-22T10:17:39;102645.81;;;8.90;63.98
6020;BME280;3038;51.122;6.840;2023-11-22T10:20:07;102648.66;;;9.14;65.60
6020;BME280;3038;51.122;6.840;2023-11-22T10:22:46;102632.97;;;9.24;62.58
6020;BME280;3038;51.122;6.840;2023-11-22T10:25:14;102637.31;;;9.38;64.35
6020;BME280;3038;51.122;6.840;2023-11-22T10:27:46;102638.44;;;9.08;61.63
6020;BME280;3038;51.122;6.840;2023-11-22T10:30:19;102638.44;;;8.95;63.05
6020;BME280;3038;51.122;6.840;2023-11-22T10:32:47;102633.81;;;8.85;62.01
6020;BME280;3038;51.122;6.840;2023-11-22T10:35:12;102643.53;;;9.11;62.38
6020;BME280;3038;51.122;6.840;2023-11-22T10:37:42;102648.84;;;9.11;62.07
6020;BME280;3038;51.122;6.840;2023-11-22T10:40:12;102649.25;;;9.18;63.00
6020;BME280;3038;51.122;6.840;2023-11-22T10:42:41;102644.63;;;9.34;63.53
6020;BME280;3038;51.122;6.840;2023-11-22T10:45:09;102645.06;;;9.41;62.32
6020;BME280;3038;51.122;6.840;2023-11-22T10:47:38;102647.50;;;9.57;61.53
6020;BME280;3038;51.122;6.840;2023-11-22T10:50:08;102644.63;;;9.98;57.54
6020;BME280;3038;51.122;6.840;2023-11-22T10:52:35;102650.88;;;10.59;56.48
6020;BME280;3038;51.122;6.840;2023-11-22T10:55:03;102648.22;;;11.18;53.63
6020;BME280;3038;51.122;6.840;2023-11-22T10:57:31;102650.50;;;11.80;53.04
6020;BME280;3038;51.122;6.840;2023-11-22T11:00:00;102644.91;;;12.40;52.19
6020;BME280;3038;51.122;6.840;2023-11-22T11:02:30;102642.16;;;12.94;48.99
6020;BME280;3038;51.122;6.840;2023-11-22T11:05:03;102652.69;;;13.28;47.00
6020;BME280;3038;51.122;6.840;2023-11-22T11:07:40;102663.47;;;13.68;47.38
6020;BME280;3038;51.122;6.840;2023-11-22T11:10:10;102658.66;;;14.23;47.18
6020;BME280;3038;51.122;6.840;2023-11-22T11:12:37;102651.31;;;14.75;45.87
6020;BME280;3038;51.122;6.840;2023-11-22T11:15:03;102652.59;;;14.90;45.33
6020;BME280;3038;51.122;6.840;2023-11-22T11:17:29;102639.91;;;15.02;44.42
6020;BME280;3038;51.122;6.840;2023-11-22T11:19:57;102641.00;;;15.29;43.18
6020;BME280;3038;51.122;6.840;2023-11-22T11:22:23;102637.38;;;14.62;45.31
6020;BME280;3038;51.122;6.840;2023-11-22T11:25:00;102634.25;;;13.67;43.21
6020;BME280;3038;51.122;6.840;2023-11-22T11:27:28;102623.00;;;13.21;47.76
6020;BME280;3038;51.122;6.840;2023-11-22T11:29:54;102628.09;;;13.24;47.24
6020;BME280;3038;51.122;6.840;2023-11-22T11:32:32;102624.47;;;13.14;44.97
6020;BME280;3038;51.122;6.840;2023-11-22T11:34:58;102618.22;;;12.51;46.59
6020;BME280;3038;51.122;6.840;2023-11-22T11:37:29;102611.44;;;12.47;45.59
6020;BME280;3038;51.122;6.840;2023-11-22T11:39:58;102607.47;;;13.05;45.00
6020;BME280;3038;51.122;6.840;2023-11-22T11:42:23;102601.81;;;13.41;45.01
6020;BME280;3038;51.122;6.840;2023-11-22T11:47:26;102599.06;;;12.89;46.01
6020;BME280;3038;51.122;6.840;2023-11-22T11:49:52;102612.13;;;12.60;47.04
6020;BME280;3038;51.122;6.840;2023-11-22T11:52:17;102607.47;;;12.41;45.96
6020;BME280;3038;51.122;6.840;2023-11-22T11:54:43;102602.69;;;12.24;44.81
6020;BME280;3038;51.122;6.840;2023-11-22T11:57:09;102616.63;;;11.94;45.70
6020;BME280;3038;51.122;6.840;2023-11-22T11:59:35;102627.91;;;11.86;46.01
6020;BME280;3038;51.122;6.840;2023-11-22T12:02:01;102622.66;;;11.51;48.37
6020;BME280;3038;51.122;6.840;2023-11-22T12:04:27;102621.91;;;11.49;47.05
6020;BME280;3038;51.122;6.840;2023-11-22T12:06:52;102610.56;;;11.47;46.69
6020;BME280;3038;51.122;6.840;2023-11-22T12:09:23;102604.00;;;11.40;47.08
6020;BME280;3038;51.122;6.840;2023-11-22T12:12:18;102595.66;;;11.22;47.55
6020;BME280;3038;51.122;6.840;2023-11-22T12:14:44;102579.56;;;10.77;47.79
6020;BME280;3038;51.122;6.840;2023-11-22T12:17:09;102565.09;;;10.81;50.66
6020;BME280;3038;51.122;6.840;2023-11-22T12:19:37;102560.09;;;10.65;48.24
6020;BME280;3038;51.122;6.840;2023-11-22T12:22:03;102546.16;;;10.50;49.42
6020;BME280;3038;51.122;6.840;2023-11-22T12:24:30;102533.50;;;10.30;50.58
6020;BME280;3038;51.122;6.840;2023-11-22T12:26:55;102520.41;;;10.03;52.15
6020;BME280;3038;51.122;6.840;2023-11-22T12:29:24;102514.03;;;9.82;50.97
6020;BME280;3038;51.122;6.840;2023-11-22T12:31:51;102512.00;;;10.09;49.93
6020;BME280;3038;51.122;6.840;2023-11-22T12:34:18;102496.22;;;10.67;48.18
6020;BME280;3038;51.122;6.840;2023-11-22T12:36:48;102497.59;;;10.95;46.18
6020;BME280;3038;51.122;6.840;2023-11-22T12:39:14;102489.16;;;11.23;48.10
6020;BME280;3038;51.122;6.840;2023-11-22T12:41:47;102497.88;;;11.37;46.84
6020;BME280;3038;51.122;6.840;2023-11-22T12:44:16;102483.13;;;11.32;46.96
6020;BME280;3038;51.122;6.840;2023-11-22T12:46:48;102478.66;;;11.22;46.02
6020;BME280;3038;51.122;6.840;2023-11-22T12:49:16;102470.69;;;11.22;46.26
6020;BME280;3038;51.122;6.840;2023-11-22T12:51:49;102466.19;;;11.56;45.79
6020;BME280;3038;51.122;6.840;2023-11-22T12:54:16;102473.44;;;12.08;44.35
6020;BME280;3038;51.122;6.840;2023-11-22T12:56:42;102481.50;;;12.71;43.60
6020;BME280;3038;51.122;6.840;2023-11-22T12:59:10;102484.69;;;13.37;42.21
6020;BME280;3038;51.122;6.840;2023-11-22T13:01:38;102482.88;;;13.98;41.42
6020;BME280;3038;51.122;6.840;2023-11-22T13:04:13;102482.16;;;13.96;40.97
6020;BME280;3038;51.122;6.840;2023-11-22T13:06:39;102480.03;;;13.30;40.80
6020;BME280;3038;51.122;6.840;2023-11-22T13:09:12;102488.09;;;12.67;42.34
6020;BME280;3038;51.122;6.840;2023-11-22T13:11:45;102480.06;;;11.71;43.95
6020;BME280;3038;51.122;6.840;2023-11-22T13:14:11;102472.00;;;11.05;43.63